Flight Briefing for CPX11

Departure Arrival
Chek Lap Kok International (VHHH)
Click to view FAA NOTAMS
Ted Stevens Anchorage International Airport (PANC)
Click to view FAA NOTAMS
Departure Time Arrival Time
N/A N/A
Aircraft Distance
B747-400BCF 4414nm
Departure METAR Arrival METAR
VHHH 232230Z 09015KT 9999 FEW010 SCT030 25/23 Q1011 TEMPO 4000 SHRA PANC 232253Z 06006KT 10SM FEW045 BKN100 OVC200 14/04 A3003 RMK AO2 SLPNO T01440039 $
Suggested Route
OCEAN V3 ENVAR M750 MEXIR M750 BUNGU Y81 SYOYU Y809 SPEAR Y808 PEXEL A590 POWAL A590 PINSO A590 HAMND NEELL6


View recent IFR Routes data
Notes



Charts and Procedures

Charts for VHHH
No chart available
Charts for PANC
No chart available

Windy.com Weather Map